sensor_id;sensor_type;location;lat;lon;timestamp;temperature;humidity
9949;DHT22;5013;51.840;8.276;2023-04-12T00:02:19;7.70;1.00
9949;DHT22;5013;51.840;8.276;2023-04-12T00:04:44;7.80;1.00
9949;DHT22;5013;51.840;8.276;2023-04-12T00:07:10;7.90;1.00
9949;DHT22;5013;51.840;8.276;2023-04-12T00:09:36;7.90;1.00
9949;DHT22;5013;51.840;8.276;2023-04-12T00:12:02;7.90;1.00
9949;DHT22;5013;51.840;8.276;2023-04-12T00:14:28;7.90;1.00
9949;DHT22;5013;51.840;8.276;2023-04-12T00:16:54;7.80;1.00
9949;DHT22;5013;51.840;8.276;2023-04-12T00:19:20;7.80;1.00
9949;DHT22;5013;51.840;8.276;2023-04-12T00:21:45;7.80;1.00
9949;DHT22;5013;51.840;8.276;2023-04-12T00:24:12;7.80;1.00
9949;DHT22;5013;51.840;8.276;2023-04-12T00:26:37;7.80;1.00
9949;DHT22;5013;51.840;8.276;2023-04-12T00:29:03;7.80;1.00
9949;DHT22;5013;51.840;8.276;2023-04-12T00:31:28;7.80;1.00
9949;DHT22;5013;51.840;8.276;2023-04-12T00:33:54;7.80;1.00
9949;DHT22;5013;51.840;8.276;2023-04-12T00:36:20;7.90;1.00
9949;DHT22;5013;51.840;8.276;2023-04-12T00:38:46;7.90;1.00
9949;DHT22;5013;51.840;8.276;2023-04-12T00:41:13;7.80;1.00
9949;DHT22;5013;51.840;8.276;2023-04-12T00:43:40;7.80;1.00
9949;DHT22;5013;51.840;8.276;2023-04-12T00:46:06;7.90;1.00
9949;DHT22;5013;51.840;8.276;2023-04-12T00:48:32;7.90;1.00
9949;DHT22;5013;51.840;8.276;2023-04-12T00:50:59;7.90;1.00
9949;DHT22;5013;51.840;8.276;2023-04-12T00:53:25;8.00;1.00
9949;DHT22;5013;51.840;8.276;2023-04-12T00:55:51;7.90;1.00
9949;DHT22;5013;51.840;8.276;2023-04-12T00:58:18;7.90;1.00
9949;DHT22;5013;51.840;8.276;2023-04-12T01:00:43;8.00;1.00
9949;DHT22;5013;51.840;8.276;2023-04-12T01:03:15;8.10;1.00
9949;DHT22;5013;51.840;8.276;2023-04-12T01:11:12;8.00;1.00
9949;DHT22;5013;51.840;8.276;2023-04-12T01:14:10;8.00;1.00
9949;DHT22;5013;51.840;8.276;2023-04-12T01:16:59;8.00;1.00
9949;DHT22;5013;51.840;8.276;2023-04-12T01:19:54;8.00;1.00
9949;DHT22;5013;51.840;8.276;2023-04-12T01:27:37;8.10;1.00
9949;DHT22;5013;51.840;8.276;2023-04-12T01:30:05;8.00;1.00
9949;DHT22;5013;51.840;8.276;2023-04-12T01:32:33;8.00;1.00
9949;DHT22;5013;51.840;8.276;2023-04-12T01:35:02;8.00;1.00
9949;DHT22;5013;51.840;8.276;2023-04-12T01:37:29;8.00;1.00
9949;DHT22;5013;51.840;8.276;2023-04-12T01:39:55;8.00;1.00
9949;DHT22;5013;51.840;8.276;2023-04-12T01:42:20;8.00;1.00
9949;DHT22;5013;51.840;8.276;2023-04-12T01:44:47;8.10;1.00
9949;DHT22;5013;51.840;8.276;2023-04-12T01:47:13;8.10;1.00
9949;DHT22;5013;51.840;8.276;2023-04-12T01:52:35;8.20;1.00
9949;DHT22;5013;51.840;8.276;2023-04-12T01:55:04;8.20;1.00
9949;DHT22;5013;51.840;8.276;2023-04-12T01:57:31;8.20;1.00
9949;DHT22;5013;51.840;8.276;2023-04-12T01:59:57;8.20;1.00
9949;DHT22;5013;51.840;8.276;2023-04-12T02:02:25;8.20;1.00
9949;DHT22;5013;51.840;8.276;2023-04-12T02:04:51;8.20;1.00
9949;DHT22;5013;51.840;8.276;2023-04-12T02:07:18;8.20;1.00
9949;DHT22;5013;51.840;8.276;2023-04-12T02:09:45;8.30;1.00
9949;DHT22;5013;51.840;8.276;2023-04-12T02:12:10;8.20;1.00
9949;DHT22;5013;51.840;8.276;2023-04-12T02:14:37;8.20;1.00
9949;DHT22;5013;51.840;8.276;2023-04-12T02:17:02;8.20;1.00
9949;DHT22;5013;51.840;8.276;2023-04-12T02:19:28;8.30;1.00
9949;DHT22;5013;51.840;8.276;2023-04-12T02:21:54;8.30;1.00
9949;DHT22;5013;51.840;8.276;2023-04-12T02:24:19;8.30;1.00
9949;DHT22;5013;51.840;8.276;2023-04-12T02:26:45;8.30;1.00
9949;DHT22;5013;51.840;8.276;2023-04-12T02:29:14;8.30;1.00
9949;DHT22;5013;51.840;8.276;2023-04-12T02:31:40;8.30;1.00
9949;DHT22;5013;51.840;8.276;2023-04-12T02:34:06;8.40;1.00
9949;DHT22;5013;51.840;8.276;2023-04-12T02:36:31;8.40;1.00
9949;DHT22;5013;51.840;8.276;2023-04-12T02:38:57;8.40;1.00
9949;DHT22;5013;51.840;8.276;2023-04-12T02:41:23;8.40;1.00
9949;DHT22;5013;51.840;8.276;2023-04-12T02:43:49;8.50;1.00
9949;DHT22;5013;51.840;8.276;2023-04-12T02:46:18;8.50;1.00
9949;DHT22;5013;51.840;8.276;2023-04-12T02:48:47;8.40;1.00
9949;DHT22;5013;51.840;8.276;2023-04-12T02:51:13;8.40;1.00
9949;DHT22;5013;51.840;8.276;2023-04-12T02:53:39;8.40;1.00
9949;DHT22;5013;51.840;8.276;2023-04-12T02:56:05;8.40;99.90
9949;DHT22;5013;51.840;8.276;2023-04-12T02:58:31;8.40;99.90
9949;DHT22;5013;51.840;8.276;2023-04-12T03:00:59;8.40;99.90
9949;DHT22;5013;51.840;8.276;2023-04-12T03:03:25;8.40;1.00
9949;DHT22;5013;51.840;8.276;2023-04-12T03:05:52;8.40;1.00
9949;DHT22;5013;51.840;8.276;2023-04-12T03:08:19;8.40;49.50
9949;DHT22;5013;51.840;8.276;2023-04-12T03:10:44;8.40;99.90
9949;DHT22;5013;51.840;8.276;2023-04-12T03:13:10;8.40;1.00
9949;DHT22;5013;51.840;8.276;2023-04-12T03:15:35;8.40;1.00
9949;DHT22;5013;51.840;8.276;2023-04-12T03:18:01;8.40;1.00
9949;DHT22;5013;51.840;8.276;2023-04-12T03:20:27;8.40;1.00
9949;DHT22;5013;51.840;8.276;2023-04-12T03:22:53;8.40;1.00
9949;DHT22;5013;51.840;8.276;2023-04-12T03:25:19;8.40;1.00
9949;DHT22;5013;51.840;8.276;2023-04-12T03:27:45;8.50;1.00
9949;DHT22;5013;51.840;8.276;2023-04-12T03:30:11;8.30;1.00
9949;DHT22;5013;51.840;8.276;2023-04-12T03:32:40;8.30;1.00
9949;DHT22;5013;51.840;8.276;2023-04-12T03:35:07;8.30;1.00
9949;DHT22;5013;51.840;8.276;2023-04-12T03:37:33;8.30;1.00
9949;DHT22;5013;51.840;8.276;2023-04-12T03:39:59;8.20;1.00
9949;DHT22;5013;51.840;8.276;2023-04-12T03:42:24;8.20;1.00
9949;DHT22;5013;51.840;8.276;2023-04-12T03:44:51;8.20;1.00
9949;DHT22;5013;51.840;8.276;2023-04-12T03:47:17;8.20;99.90
9949;DHT22;5013;51.840;8.276;2023-04-12T03:49:43;8.10;1.00
9949;DHT22;5013;51.840;8.276;2023-04-12T03:52:09;8.20;1.00
9949;DHT22;5013;51.840;8.276;2023-04-12T03:54:35;8.10;29.50
9949;DHT22;5013;51.840;8.276;2023-04-12T03:57:01;8.10;1.00
9949;DHT22;5013;51.840;8.276;2023-04-12T03:59:27;8.10;1.00
9949;DHT22;5013;51.840;8.276;2023-04-12T04:01:54;8.10;1.00
9949;DHT22;5013;51.840;8.276;2023-04-12T04:04:20;8.10;1.00
9949;DHT22;5013;51.840;8.276;2023-04-12T04:06:46;8.10;1.00
9949;DHT22;5013;51.840;8.276;2023-04-12T04:09:13;8.10;1.00
9949;DHT22;5013;51.840;8.276;2023-04-12T04:11:38;8.10;1.00
9949;DHT22;5013;51.840;8.276;2023-04-12T04:14:04;8.20;1.00
9949;DHT22;5013;51.840;8.276;2023-04-12T04:16:30;8.10;1.00
9949;DHT22;5013;51.840;8.276;2023-04-12T04:18:55;8.20;1.00
9949;DHT22;5013;51.840;8.276;2023-04-12T04:21:21;8.20;1.00
9949;DHT22;5013;51.840;8.276;2023-04-12T04:23:48;8.10;1.00
9949;DHT22;5013;51.840;8.276;2023-04-12T04:26:16;8.20;1.00
9949;DHT22;5013;51.840;8.276;2023-04-12T04:28:45;8.20;1.00
9949;DHT22;5013;51.840;8.276;2023-04-12T04:31:11;8.20;1.00
9949;DHT22;5013;51.840;8.276;2023-04-12T04:33:38;8.20;1.00
9949;DHT22;5013;51.840;8.276;2023-04-12T04:36:05;8.20;1.00
9949;DHT22;5013;51.840;8.276;2023-04-12T04:38:32;8.20;1.00
9949;DHT22;5013;51.840;8.276;2023-04-12T04:41:01;8.20;99.90
9949;DHT22;5013;51.840;8.276;2023-04-12T04:43:28;8.20;99.90
9949;DHT22;5013;51.840;8.276;2023-04-12T04:45:58;8.20;1.00
9949;DHT22;5013;51.840;8.276;2023-04-12T04:48:24;8.20;99.90
9949;DHT22;5013;51.840;8.276;2023-04-12T04:50:49;8.20;99.90
9949;DHT22;5013;51.840;8.276;2023-04-12T04:53:20;8.20;1.00
9949;DHT22;5013;51.840;8.276;2023-04-12T04:55:46;8.20;1.00
9949;DHT22;5013;51.840;8.276;2023-04-12T04:58:12;8.20;1.00
9949;DHT22;5013;51.840;8.276;2023-04-12T05:00:38;8.20;1.00
9949;DHT22;5013;51.840;8.276;2023-04-12T05:03:03;8.30;1.00
9949;DHT22;5013;51.840;8.276;2023-04-12T05:05:29;8.30;99.90
9949;DHT22;5013;51.840;8.276;2023-04-12T05:07:55;8.40;99.90
9949;DHT22;5013;51.840;8.276;2023-04-12T05:10:22;8.40;1.00
9949;DHT22;5013;51.840;8.276;2023-04-12T05:12:48;8.50;99.90
9949;DHT22;5013;51.840;8.276;2023-04-12T05:15:13;8.60;99.90
9949;DHT22;5013;51.840;8.276;2023-04-12T05:17:39;8.60;99.90
9949;DHT22;5013;51.840;8.276;2023-04-12T05:20:05;8.70;99.90
9949;DHT22;5013;51.840;8.276;2023-04-12T05:22:34;8.70;99.90
9949;DHT22;5013;51.840;8.276;2023-04-12T05:24:59;8.80;99.90
9949;DHT22;5013;51.840;8.276;2023-04-12T05:27:25;8.80;99.90
9949;DHT22;5013;51.840;8.276;2023-04-12T05:29:55;8.90;99.90
9949;DHT22;5013;51.840;8.276;2023-04-12T05:32:21;8.80;46.90
9949;DHT22;5013;51.840;8.276;2023-04-12T05:34:46;8.90;8.80
9949;DHT22;5013;51.840;8.276;2023-04-12T05:37:12;8.80;99.90
9949;DHT22;5013;51.840;8.276;2023-04-12T05:39:38;8.90;99.90
9949;DHT22;5013;51.840;8.276;2023-04-12T05:42:03;8.90;99.90
9949;DHT22;5013;51.840;8.276;2023-04-12T05:44:29;8.90;99.90
9949;DHT22;5013;51.840;8.276;2023-04-12T05:46:55;8.90;99.90
9949;DHT22;5013;51.840;8.276;2023-04-12T05:49:20;9.00;99.90
9949;DHT22;5013;51.840;8.276;2023-04-12T05:51:46;9.00;99.90
9949;DHT22;5013;51.840;8.276;2023-04-12T05:54:11;9.10;99.90
9949;DHT22;5013;51.840;8.276;2023-04-12T05:56:37;9.10;99.90
9949;DHT22;5013;51.840;8.276;2023-04-12T05:59:03;9.10;68.00
9949;DHT22;5013;51.840;8.276;2023-04-12T06:01:29;9.10;99.90
9949;DHT22;5013;51.840;8.276;2023-04-12T06:03:57;9.20;99.90
9949;DHT22;5013;51.840;8.276;2023-04-12T06:06:22;9.20;99.90
9949;DHT22;5013;51.840;8.276;2023-04-12T06:08:48;9.30;1.00
9949;DHT22;5013;51.840;8.276;2023-04-12T06:11:13;9.30;1.00
9949;DHT22;5013;51.840;8.276;2023-04-12T06:13:40;9.30;1.00
9949;DHT22;5013;51.840;8.276;2023-04-12T06:16:06;9.30;1.00
9949;DHT22;5013;51.840;8.276;2023-04-12T06:18:32;9.30;1.00
9949;DHT22;5013;51.840;8.276;2023-04-12T06:20:57;9.40;1.00
9949;DHT22;5013;51.840;8.276;2023-04-12T06:23:23;9.30;1.00
9949;DHT22;5013;51.840;8.276;2023-04-12T06:25:48;9.30;1.00
9949;DHT22;5013;51.840;8.276;2023-04-12T06:28:15;9.20;35.20
9949;DHT22;5013;51.840;8.276;2023-04-12T06:30:41;9.30;99.90
9949;DHT22;5013;51.840;8.276;2023-04-12T06:33:06;9.30;99.90
9949;DHT22;5013;51.840;8.276;2023-04-12T06:35:32;9.30;99.90
9949;DHT22;5013;51.840;8.276;2023-04-12T06:37:58;9.30;1.00
9949;DHT22;5013;51.840;8.276;2023-04-12T06:40:23;9.30;1.00
9949;DHT22;5013;51.840;8.276;2023-04-12T06:42:49;9.20;99.90
9949;DHT22;5013;51.840;8.276;2023-04-12T06:45:15;9.20;1.00
9949;DHT22;5013;51.840;8.276;2023-04-12T06:47:41;9.10;1.00
9949;DHT22;5013;51.840;8.276;2023-04-12T06:50:06;9.10;1.00
9949;DHT22;5013;51.840;8.276;2023-04-12T06:52:32;9.10;99.90
9949;DHT22;5013;51.840;8.276;2023-04-12T06:54:58;9.00;1.00
9949;DHT22;5013;51.840;8.276;2023-04-12T06:57:23;9.00;99.90
9949;DHT22;5013;51.840;8.276;2023-04-12T06:59:49;8.90;1.00
9949;DHT22;5013;51.840;8.276;2023-04-12T07:02:15;8.90;1.00
9949;DHT22;5013;51.840;8.276;2023-04-12T07:04:41;8.90;99.90
9949;DHT22;5013;51.840;8.276;2023-04-12T07:07:06;8.80;99.90
9949;DHT22;5013;51.840;8.276;2023-04-12T07:09:32;8.80;1.00
9949;DHT22;5013;51.840;8.276;2023-04-12T07:11:59;8.80;1.00
9949;DHT22;5013;51.840;8.276;2023-04-12T07:14:25;8.80;99.90
9949;DHT22;5013;51.840;8.276;2023-04-12T07:16:50;8.80;1.00
9949;DHT22;5013;51.840;8.276;2023-04-12T07:19:16;8.90;38.10
9949;DHT22;5013;51.840;8.276;2023-04-12T07:21:41;8.80;1.60
9949;DHT22;5013;51.840;8.276;2023-04-12T07:24:07;8.90;99.90
9949;DHT22;5013;51.840;8.276;2023-04-12T07:26:33;8.90;1.00
9949;DHT22;5013;51.840;8.276;2023-04-12T07:28:58;8.90;1.00
9949;DHT22;5013;51.840;8.276;2023-04-12T07:31:24;8.80;99.90
9949;DHT22;5013;51.840;8.276;2023-04-12T07:33:49;8.80;1.00
9949;DHT22;5013;51.840;8.276;2023-04-12T07:36:15;8.90;99.90
9949;DHT22;5013;51.840;8.276;2023-04-12T07:38:41;8.80;99.90
9949;DHT22;5013;51.840;8.276;2023-04-12T07:41:08;8.90;99.90
9949;DHT22;5013;51.840;8.276;2023-04-12T07:43:34;9.00;99.90
9949;DHT22;5013;51.840;8.276;2023-04-12T07:45:59;8.90;99.90
9949;DHT22;5013;51.840;8.276;2023-04-12T07:48:28;9.00;1.00
9949;DHT22;5013;51.840;8.276;2023-04-12T07:50:54;9.00;1.00
9949;DHT22;5013;51.840;8.276;2023-04-12T07:53:22;8.90;68.40
9949;DHT22;5013;51.840;8.276;2023-04-12T07:55:48;9.00;1.00
9949;DHT22;5013;51.840;8.276;2023-04-12T07:58:14;9.00;99.90
9949;DHT22;5013;51.840;8.276;2023-04-12T08:00:40;9.00;2.90
9949;DHT22;5013;51.840;8.276;2023-04-12T08:03:06;9.10;99.90
9949;DHT22;5013;51.840;8.276;2023-04-12T08:05:31;9.20;1.00
9949;DHT22;5013;51.840;8.276;2023-04-12T08:07:57;9.30;1.00
9949;DHT22;5013;51.840;8.276;2023-04-12T08:10:22;9.40;99.90
9949;DHT22;5013;51.840;8.276;2023-04-12T08:12:48;9.50;97.00
9949;DHT22;5013;51.840;8.276;2023-04-12T08:15:13;9.60;99.90
9949;DHT22;5013;51.840;8.276;2023-04-12T08:17:39;9.60;1.00
9949;DHT22;5013;51.840;8.276;2023-04-12T08:20:08;9.60;1.00
9949;DHT22;5013;51.840;8.276;2023-04-12T08:22:34;9.60;1.00
9949;DHT22;5013;51.840;8.276;2023-04-12T08:25:00;9.60;99.90
9949;DHT22;5013;51.840;8.276;2023-04-12T08:27:26;9.60;1.00
9949;DHT22;5013;51.840;8.276;2023-04-12T08:29:51;9.60;99.90
9949;DHT22;5013;51.840;8.276;2023-04-12T08:32:17;9.60;1.00
9949;DHT22;5013;51.840;8.276;2023-04-12T08:34:43;9.60;38.90
9949;DHT22;5013;51.840;8.276;2023-04-12T08:37:08;9.60;99.90
9949;DHT22;5013;51.840;8.276;2023-04-12T08:39:34;9.60;99.90
9949;DHT22;5013;51.840;8.276;2023-04-12T08:42:00;9.60;99.90
9949;DHT22;5013;51.840;8.276;2023-04-12T08:44:33;9.50;99.90
9949;DHT22;5013;51.840;8.276;2023-04-12T08:47:04;9.60;1.00
9949;DHT22;5013;51.840;8.276;2023-04-12T08:49:31;9.70;1.00
9949;DHT22;5013;51.840;8.276;2023-04-12T08:52:03;10.00;1.00
9949;DHT22;5013;51.840;8.276;2023-04-12T08:54:33;10.10;99.90
9949;DHT22;5013;51.840;8.276;2023-04-12T08:57:01;10.30;1.00
9949;DHT22;5013;51.840;8.276;2023-04-12T08:59:28;10.50;58.50
9949;DHT22;5013;51.840;8.276;2023-04-12T09:01:54;10.60;99.90
9949;DHT22;5013;51.840;8.276;2023-04-12T09:04:21;10.70;99.90
9949;DHT22;5013;51.840;8.276;2023-04-12T09:06:46;10.70;1.00
9949;DHT22;5013;51.840;8.276;2023-04-12T09:09:12;10.80;1.00
9949;DHT22;5013;51.840;8.276;2023-04-12T09:11:38;10.70;1.00
9949;DHT22;5013;51.840;8.276;2023-04-12T09:14:24;10.80;1.00
9949;DHT22;5013;51.840;8.276;2023-04-12T09:16:50;10.80;1.00
9949;DHT22;5013;51.840;8.276;2023-04-12T09:19:30;10.60;99.90
9949;DHT22;5013;51.840;8.276;2023-04-12T09:21:56;10.70;1.00
9949;DHT22;5013;51.840;8.276;2023-04-12T09:24:22;10.70;1.00
9949;DHT22;5013;51.840;8.276;2023-04-12T09:27:01;10.60;99.90
9949;DHT22;5013;51.840;8.276;2023-04-12T09:29:27;10.60;99.90
9949;DHT22;5013;51.840;8.276;2023-04-12T09:32:02;10.70;1.00
9949;DHT22;5013;51.840;8.276;2023-04-12T09:34:32;10.70;99.90
9949;DHT22;5013;51.840;8.276;2023-04-12T09:36:58;10.70;1.00
9949;DHT22;5013;51.840;8.276;2023-04-12T09:39:31;10.80;99.90
9949;DHT22;5013;51.840;8.276;2023-04-12T09:42:07;11.00;99.90
9949;DHT22;5013;51.840;8.276;2023-04-12T09:44:33;11.00;99.90
9949;DHT22;5013;51.840;8.276;2023-04-12T09:47:00;11.10;99.90
9949;DHT22;5013;51.840;8.276;2023-04-12T09:49:40;11.00;99.90
9949;DHT22;5013;51.840;8.276;2023-04-12T09:52:10;11.20;99.90
9949;DHT22;5013;51.840;8.276;2023-04-12T09:54:44;11.20;99.90
9949;DHT22;5013;51.840;8.276;2023-04-12T09:57:11;11.20;99.90
9949;DHT22;5013;51.840;8.276;2023-04-12T09:59:39;11.10;1.00
9949;DHT22;5013;51.840;8.276;2023-04-12T10:02:18;11.10;1.00
9949;DHT22;5013;51.840;8.276;2023-04-12T10:04:47;11.10;83.40
9949;DHT22;5013;51.840;8.276;2023-04-12T10:07:14;11.10;99.90
9949;DHT22;5013;51.840;8.276;2023-04-12T10:09:40;11.10;1.00
9949;DHT22;5013;51.840;8.276;2023-04-12T10:12:07;11.10;1.00
9949;DHT22;5013;51.840;8.276;2023-04-12T10:14:33;11.10;95.40
9949;DHT22;5013;51.840;8.276;2023-04-12T10:17:03;11.20;1.00
9949;DHT22;5013;51.840;8.276;2023-04-12T10:19:30;11.20;99.90
9949;DHT22;5013;51.840;8.276;2023-04-12T10:21:58;11.30;16.90
9949;DHT22;5013;51.840;8.276;2023-04-12T10:24:25;11.30;99.90
9949;DHT22;5013;51.840;8.276;2023-04-12T10:26:53;11.50;1.00
9949;DHT22;5013;51.840;8.276;2023-04-12T10:31:54;12.00;1.00
9949;DHT22;5013;51.840;8.276;2023-04-12T10:34:29;12.00;99.90
9949;DHT22;5013;51.840;8.276;2023-04-12T10:36:57;12.20;34.70
9949;DHT22;5013;51.840;8.276;2023-04-12T10:39:43;12.20;1.00
9949;DHT22;5013;51.840;8.276;2023-04-12T10:42:18;12.50;99.90
9949;DHT22;5013;51.840;8.276;2023-04-12T10:44:46;12.60;1.00
9949;DHT22;5013;51.840;8.276;2023-04-12T10:47:11;12.60;1.00
9949;DHT22;5013;51.840;8.276;2023-04-12T10:49:38;12.40;1.00
9949;DHT22;5013;51.840;8.276;2023-04-12T10:52:11;12.40;99.90
9949;DHT22;5013;51.840;8.276;2023-04-12T10:54:37;12.60;99.90
9949;DHT22;5013;51.840;8.276;2023-04-12T10:57:03;12.60;1.00
9949;DHT22;5013;51.840;8.276;2023-04-12T10:59:51;12.50;1.00
9949;DHT22;5013;51.840;8.276;2023-04-12T11:02:16;12.70;1.00
9949;DHT22;5013;51.840;8.276;2023-04-12T11:05:18;12.60;1.00
9949;DHT22;5013;51.840;8.276;2023-04-12T11:07:44;12.60;1.00
9949;DHT22;5013;51.840;8.276;2023-04-12T11:10:14;12.90;1.00
9949;DHT22;5013;51.840;8.276;2023-04-12T11:12:41;12.90;1.00
9949;DHT22;5013;51.840;8.276;2023-04-12T11:15:12;12.80;99.90
9949;DHT22;5013;51.840;8.276;2023-04-12T11:17:38;12.90;99.90
9949;DHT22;5013;51.840;8.276;2023-04-12T11:20:04;13.30;99.90
9949;DHT22;5013;51.840;8.276;2023-04-12T11:22:34;13.60;1.00
9949;DHT22;5013;51.840;8.276;2023-04-12T11:25:01;13.90;1.00
9949;DHT22;5013;51.840;8.276;2023-04-12T11:27:28;13.80;1.00
9949;DHT22;5013;51.840;8.276;2023-04-12T11:29:55;13.80;99.90
9949;DHT22;5013;51.840;8.276;2023-04-12T11:32:26;13.80;99.90
9949;DHT22;5013;51.840;8.276;2023-04-12T11:34:53;13.70;1.00
9949;DHT22;5013;51.840;8.276;2023-04-12T11:37:20;13.60;1.00
9949;DHT22;5013;51.840;8.276;2023-04-12T11:39:47;13.50;1.00
9949;DHT22;5013;51.840;8.276;2023-04-12T11:42:16;13.30;1.00
9949;DHT22;5013;51.840;8.276;2023-04-12T11:44:43;13.40;1.00
9949;DHT22;5013;51.840;8.276;2023-04-12T11:47:16;13.60;99.90
9949;DHT22;5013;51.840;8.276;2023-04-12T11:49:47;13.70;99.90
9949;DHT22;5013;51.840;8.276;2023-04-12T11:52:14;13.40;99.90
9949;DHT22;5013;51.840;8.276;2023-04-12T11:54:42;13.20;1.00
9949;DHT22;5013;51.840;8.276;2023-04-12T11:57:10;13.00;1.00
9949;DHT22;5013;51.840;8.276;2023-04-12T11:59:36;13.20;99.90
9949;DHT22;5013;51.840;8.276;2023-04-12T12:02:02;13.20;99.90
9949;DHT22;5013;51.840;8.276;2023-04-12T12:04:29;13.20;1.00
9949;DHT22;5013;51.840;8.276;2023-04-12T12:06:56;13.00;99.90
9949;DHT22;5013;51.840;8.276;2023-04-12T12:09:23;13.00;99.90
9949;DHT22;5013;51.840;8.276;2023-04-12T12:11:50;12.80;99.90
9949;DHT22;5013;51.840;8.276;2023-04-12T12:14:23;12.60;99.90
9949;DHT22;5013;51.840;8.276;2023-04-12T12:16:56;12.60;1.00
9949;DHT22;5013;51.840;8.276;2023-04-12T12:19:29;12.50;45.70
9949;DHT22;5013;51.840;8.276;2023-04-12T12:22:16;12.50;99.90
9949;DHT22;5013;51.840;8.276;2023-04-12T12:24:55;12.40;1.00
9949;DHT22;5013;51.840;8.276;2023-04-12T12:27:23;12.50;99.90
9949;DHT22;5013;51.840;8.276;2023-04-12T12:29:51;12.50;1.00
9949;DHT22;5013;51.840;8.276;2023-04-12T12:32:18;12.50;1.00
9949;DHT22;5013;51.840;8.276;2023-04-12T12:34:52;12.40;1.00
9949;DHT22;5013;51.840;8.276;2023-04-12T12:37:28;12.40;99.90
9949;DHT22;5013;51.840;8.276;2023-04-12T12:40:08;12.50;1.00
9949;DHT22;5013;51.840;8.276;2023-04-12T12:42:54;12.50;59.50
9949;DHT22;5013;51.840;8.276;2023-04-12T12:45:21;12.50;99.90
9949;DHT22;5013;51.840;8.276;2023-04-12T12:48:02;12.50;98.60
9949;DHT22;5013;51.840;8.276;2023-04-12T12:50:30;12.50;99.90
9949;DHT22;5013;51.840;8.276;2023-04-12T12:52:56;12.60;1.00
9949;DHT22;5013;51.840;8.276;2023-04-12T12:55:23;12.60;99.90
9949;DHT22;5013;51.840;8.276;2023-04-12T12:57:51;12.30;1.00
9949;DHT22;5013;51.840;8.276;2023-04-12T13:00:18;12.20;1.00
9949;DHT22;5013;51.840;8.276;2023-04-12T13:02:44;12.20;1.00
9949;DHT22;5013;51.840;8.276;2023-04-12T13:05:11;12.00;15.40
9949;DHT22;5013;51.840;8.276;2023-04-12T13:07:37;11.90;99.90
9949;DHT22;5013;51.840;8.276;2023-04-12T13:10:03;11.90;99.90
9949;DHT22;5013;51.840;8.276;2023-04-12T13:12:29;11.90;99.90
9949;DHT22;5013;51.840;8.276;2023-04-12T13:14:57;11.80;99.90
9949;DHT22;5013;51.840;8.276;2023-04-12T13:17:25;11.60;99.90
9949;DHT22;5013;51.840;8.276;2023-04-12T13:19:51;11.40;99.90
9949;DHT22;5013;51.840;8.276;2023-04-12T13:22:16;11.30;99.90
9949;DHT22;5013;51.840;8.276;2023-04-12T13:24:42;11.30;99.90
9949;DHT22;5013;51.840;8.276;2023-04-12T13:27:08;11.30;1.00
9949;DHT22;5013;51.840;8.276;2023-04-12T13:29:35;11.30;1.00
9949;DHT22;5013;51.840;8.276;2023-04-12T13:32:01;11.30;99.90
9949;DHT22;5013;51.840;8.276;2023-04-12T13:34:26;11.30;1.00
9949;DHT22;5013;51.840;8.276;2023-04-12T13:36:52;11.50;1.00
9949;DHT22;5013;51.840;8.276;2023-04-12T13:39:17;11.70;1.00
9949;DHT22;5013;51.840;8.276;2023-04-12T13:41:43;11.70;99.90
9949;DHT22;5013;51.840;8.276;2023-04-12T13:44:09;11.80;99.90
9949;DHT22;5013;51.840;8.276;2023-04-12T13:46:35;12.00;99.40
9949;DHT22;5013;51.840;8.276;2023-04-12T13:49:01;12.20;99.90
9949;DHT22;5013;51.840;8.276;2023-04-12T13:51:26;12.30;1.00
9949;DHT22;5013;51.840;8.276;2023-04-12T13:53:53;12.30;99.90
9949;DHT22;5013;51.840;8.276;2023-04-12T13:56:19;12.20;99.90
9949;DHT22;5013;51.840;8.276;2023-04-12T13:58:45;12.20;65.30
9949;DHT22;5013;51.840;8.276;2023-04-12T14:01:10;12.20;99.90
9949;DHT22;5013;51.840;8.276;2023-04-12T14:03:38;12.40;12.80
9949;DHT22;5013;51.840;8.276;2023-04-12T14:06:04;12.50;1.00
9949;DHT22;5013;51.840;8.276;2023-04-12T14:08:30;12.50;99.90
9949;DHT22;5013;51.840;8.276;2023-04-12T14:10:56;12.40;99.90
9949;DHT22;5013;51.840;8.276;2023-04-12T14:13:22;12.60;99.90
9949;DHT22;5013;51.840;8.276;2023-04-12T14:15:50;12.70;1.00
9949;DHT22;5013;51.840;8.276;2023-04-12T14:18:16;12.60;1.00
9949;DHT22;5013;51.840;8.276;2023-04-12T14:20:41;12.50;1.00
9949;DHT22;5013;51.840;8.276;2023-04-12T14:23:08;12.40;1.00
9949;DHT22;5013;51.840;8.276;2023-04-12T14:25:37;12.60;99.90
9949;DHT22;5013;51.840;8.276;2023-04-12T14:28:03;12.80;99.90
9949;DHT22;5013;51.840;8.276;2023-04-12T14:30:28;12.80;99.90
9949;DHT22;5013;51.840;8.276;2023-04-12T14:32:54;12.90;99.90
9949;DHT22;5013;51.840;8.276;2023-04-12T14:35:19;12.80;99.90
9949;DHT22;5013;51.840;8.276;2023-04-12T14:37:45;12.90;99.90
9949;DHT22;5013;51.840;8.276;2023-04-12T14:40:11;13.00;99.90
9949;DHT22;5013;51.840;8.276;2023-04-12T14:42:36;13.20;1.00
9949;DHT22;5013;51.840;8.276;2023-04-12T14:45:02;13.30;99.90
9949;DHT22;5013;51.840;8.276;2023-04-12T14:47:30;13.40;99.90
9949;DHT22;5013;51.840;8.276;2023-04-12T14:49:56;13.60;1.00
9949;DHT22;5013;51.840;8.276;2023-04-12T14:52:22;13.60;1.00
9949;DHT22;5013;51.840;8.276;2023-04-12T14:54:47;13.60;1.00
9949;DHT22;5013;51.840;8.276;2023-04-12T14:57:13;13.50;1.00
9949;DHT22;5013;51.840;8.276;2023-04-12T14:59:39;13.50;1.00
9949;DHT22;5013;51.840;8.276;2023-04-12T15:02:05;13.30;1.00
9949;DHT22;5013;51.840;8.276;2023-04-12T15:04:31;13.30;99.90
9949;DHT22;5013;51.840;8.276;2023-04-12T15:06:56;13.30;1.00
9949;DHT22;5013;51.840;8.276;2023-04-12T15:09:22;13.50;29.70
9949;DHT22;5013;51.840;8.276;2023-04-12T15:11:50;13.40;1.00
9949;DHT22;5013;51.840;8.276;2023-04-12T15:14:24;13.50;1.00
9949;DHT22;5013;51.840;8.276;2023-04-12T15:16:50;13.50;1.00
9949;DHT22;5013;51.840;8.276;2023-04-12T15:19:16;13.30;99.90
9949;DHT22;5013;51.840;8.276;2023-04-12T15:21:44;13.30;1.00
9949;DHT22;5013;51.840;8.276;2023-04-12T15:24:11;13.30;99.90
9949;DHT22;5013;51.840;8.276;2023-04-12T15:26:36;13.10;1.00
9949;DHT22;5013;51.840;8.276;2023-04-12T15:29:02;13.10;99.90
9949;DHT22;5013;51.840;8.276;2023-04-12T15:31:28;13.10;1.00
9949;DHT22;5013;51.840;8.276;2023-04-12T15:33:54;13.10;1.00
9949;DHT22;5013;51.840;8.276;2023-04-12T15:36:19;13.30;1.00
9949;DHT22;5013;51.840;8.276;2023-04-12T15:38:46;13.50;8.20
9949;DHT22;5013;51.840;8.276;2023-04-12T15:41:11;13.70;99.90
9949;DHT22;5013;51.840;8.276;2023-04-12T15:43:37;13.70;1.00
9949;DHT22;5013;51.840;8.276;2023-04-12T15:46:03;13.70;99.90
9949;DHT22;5013;51.840;8.276;2023-04-12T15:48:29;13.70;1.00
9949;DHT22;5013;51.840;8.276;2023-04-12T15:50:55;13.50;99.90
9949;DHT22;5013;51.840;8.276;2023-04-12T15:53:23;13.30;1.00
9949;DHT22;5013;51.840;8.276;2023-04-12T15:55:49;13.20;1.00
9949;DHT22;5013;51.840;8.276;2023-04-12T15:58:22;13.10;1.00
9949;DHT22;5013;51.840;8.276;2023-04-12T16:00:48;13.10;1.00
9949;DHT22;5013;51.840;8.276;2023-04-12T16:03:15;12.90;1.00
9949;DHT22;5013;51.840;8.276;2023-04-12T16:05:44;12.50;99.90
9949;DHT22;5013;51.840;8.276;2023-04-12T16:08:09;11.70;1.00
9949;DHT22;5013;51.840;8.276;2023-04-12T16:10:35;10.90;1.00
9949;DHT22;5013;51.840;8.276;2023-04-12T16:13:03;10.60;1.00
9949;DHT22;5013;51.840;8.276;2023-04-12T16:15:33;10.40;1.00
9949;DHT22;5013;51.840;8.276;2023-04-12T16:17:59;10.30;1.00
9949;DHT22;5013;51.840;8.276;2023-04-12T16:20:24;10.30;1.00
9949;DHT22;5013;51.840;8.276;2023-04-12T16:22:52;10.10;99.90
9949;DHT22;5013;51.840;8.276;2023-04-12T16:25:26;9.90;1.00
9949;DHT22;5013;51.840;8.276;2023-04-12T16:27:55;9.80;1.00
9949;DHT22;5013;51.840;8.276;2023-04-12T16:30:20;9.80;99.90
9949;DHT22;5013;51.840;8.276;2023-04-12T16:32:47;9.70;1.00
9949;DHT22;5013;51.840;8.276;2023-04-12T16:35:15;9.70;99.90
9949;DHT22;5013;51.840;8.276;2023-04-12T16:37:42;9.60;1.00